sensor_id;sensor_type;location;lat;lon;timestamp;P1;durP1;ratioP1;P2;durP2;ratioP2
38089;SDS011;23904;52.322;10.232;2023-08-17T00:01:26;9.88;;;3.25;;
38089;SDS011;23904;52.322;10.232;2023-08-17T00:03:51;8.25;;;2.58;;
38089;SDS011;23904;52.322;10.232;2023-08-17T00:06:17;7.28;;;2.72;;
38089;SDS011;23904;52.322;10.232;2023-08-17T00:08:43;8.43;;;2.83;;
38089;SDS011;23904;52.322;10.232;2023-08-17T00:11:09;9.68;;;2.65;;
38089;SDS011;23904;52.322;10.232;2023-08-17T00:13:34;5.05;;;2.38;;
38089;SDS011;23904;52.322;10.232;2023-08-17T00:16:00;7.10;;;3.10;;
38089;SDS011;23904;52.322;10.232;2023-08-17T00:18:26;6.50;;;2.40;;
38089;SDS011;23904;52.322;10.232;2023-08-17T00:20:52;4.53;;;1.92;;
38089;SDS011;23904;52.322;10.232;2023-08-17T00:23:18;7.47;;;2.20;;
38089;SDS011;23904;52.322;10.232;2023-08-17T00:25:45;6.78;;;2.20;;
38089;SDS011;23904;52.322;10.232;2023-08-17T00:28:12;8.75;;;2.40;;
38089;SDS011;23904;52.322;10.232;2023-08-17T00:30:38;5.72;;;2.80;;
38089;SDS011;23904;52.322;10.232;2023-08-17T00:33:04;5.15;;;2.17;;
38089;SDS011;23904;52.322;10.232;2023-08-17T00:35:31;5.25;;;2.70;;
38089;SDS011;23904;52.322;10.232;2023-08-17T00:37:57;3.40;;;2.20;;
38089;SDS011;23904;52.322;10.232;2023-08-17T00:40:24;11.40;;;2.95;;
38089;SDS011;23904;52.322;10.232;2023-08-17T00:42:49;7.68;;;2.88;;
38089;SDS011;23904;52.322;10.232;2023-08-17T00:45:15;9.15;;;2.83;;
38089;SDS011;23904;52.322;10.232;2023-08-17T00:47:41;5.25;;;2.38;;
38089;SDS011;23904;52.322;10.232;2023-08-17T00:50:07;7.28;;;2.90;;
38089;SDS011;23904;52.322;10.232;2023-08-17T00:52:33;9.15;;;3.08;;
38089;SDS011;23904;52.322;10.232;2023-08-17T00:54:59;7.28;;;2.80;;
38089;SDS011;23904;52.322;10.232;2023-08-17T00:57:27;8.10;;;2.88;;
38089;SDS011;23904;52.322;10.232;2023-08-17T00:59:54;7.95;;;3.00;;
38089;SDS011;23904;52.322;10.232;2023-08-17T01:02:20;8.75;;;2.90;;
38089;SDS011;23904;52.322;10.232;2023-08-17T01:04:46;9.65;;;3.38;;
38089;SDS011;23904;52.322;10.232;2023-08-17T01:07:12;8.18;;;3.45;;
38089;SDS011;23904;52.322;10.232;2023-08-17T01:09:37;7.75;;;2.72;;
38089;SDS011;23904;52.322;10.232;2023-08-17T01:17:54;7.20;;;3.40;;
38089;SDS011;23904;52.322;10.232;2023-08-17T01:20:26;11.35;;;4.10;;
38089;SDS011;23904;52.322;10.232;2023-08-17T01:22:54;10.00;;;3.38;;
38089;SDS011;23904;52.322;10.232;2023-08-17T01:25:23;9.00;;;3.83;;
38089;SDS011;23904;52.322;10.232;2023-08-17T01:27:49;10.98;;;4.07;;
38089;SDS011;23904;52.322;10.232;2023-08-17T01:30:15;7.10;;;3.40;;
38089;SDS011;23904;52.322;10.232;2023-08-17T01:32:57;7.07;;;3.60;;
38089;SDS011;23904;52.322;10.232;2023-08-17T01:35:43;10.68;;;4.50;;
38089;SDS011;23904;52.322;10.232;2023-08-17T01:38:37;13.05;;;4.00;;
38089;SDS011;23904;52.322;10.232;2023-08-17T01:41:05;13.40;;;4.85;;
38089;SDS011;23904;52.322;10.232;2023-08-17T01:43:32;12.20;;;4.90;;
38089;SDS011;23904;52.322;10.232;2023-08-17T01:45:58;9.60;;;4.82;;
38089;SDS011;23904;52.322;10.232;2023-08-17T01:48:25;7.57;;;4.95;;
38089;SDS011;23904;52.322;10.232;2023-08-17T01:50:51;10.38;;;5.07;;
38089;SDS011;23904;52.322;10.232;2023-08-17T01:53:16;12.90;;;5.30;;
38089;SDS011;23904;52.322;10.232;2023-08-17T01:55:42;13.05;;;5.40;;
38089;SDS011;23904;52.322;10.232;2023-08-17T01:58:08;13.65;;;6.03;;
38089;SDS011;23904;52.322;10.232;2023-08-17T02:00:33;11.27;;;5.25;;
38089;SDS011;23904;52.322;10.232;2023-08-17T02:02:59;11.10;;;6.10;;
38089;SDS011;23904;52.322;10.232;2023-08-17T02:05:24;11.32;;;6.20;;
38089;SDS011;23904;52.322;10.232;2023-08-17T02:07:53;10.98;;;5.75;;
38089;SDS011;23904;52.322;10.232;2023-08-17T02:10:18;9.85;;;5.95;;
38089;SDS011;23904;52.322;10.232;2023-08-17T02:12:44;14.15;;;6.78;;
38089;SDS011;23904;52.322;10.232;2023-08-17T02:15:09;11.50;;;5.82;;
38089;SDS011;23904;52.322;10.232;2023-08-17T02:17:35;12.20;;;5.95;;
38089;SDS011;23904;52.322;10.232;2023-08-17T02:20:00;14.80;;;7.03;;
38089;SDS011;23904;52.322;10.232;2023-08-17T02:22:26;14.52;;;6.40;;
38089;SDS011;23904;52.322;10.232;2023-08-17T02:24:52;12.88;;;6.53;;
38089;SDS011;23904;52.322;10.232;2023-08-17T02:27:17;15.13;;;5.97;;
38089;SDS011;23904;52.322;10.232;2023-08-17T02:29:43;13.23;;;7.05;;
38089;SDS011;23904;52.322;10.232;2023-08-17T02:32:08;14.18;;;6.95;;
38089;SDS011;23904;52.322;10.232;2023-08-17T02:34:34;10.30;;;6.65;;
38089;SDS011;23904;52.322;10.232;2023-08-17T02:36:59;13.43;;;6.82;;
38089;SDS011;23904;52.322;10.232;2023-08-17T02:39:25;16.08;;;7.20;;
38089;SDS011;23904;52.322;10.232;2023-08-17T02:41:50;10.68;;;6.70;;
38089;SDS011;23904;52.322;10.232;2023-08-17T02:44:16;14.75;;;7.50;;
38089;SDS011;23904;52.322;10.232;2023-08-17T02:46:42;14.43;;;8.10;;
38089;SDS011;23904;52.322;10.232;2023-08-17T02:49:07;13.13;;;7.53;;
38089;SDS011;23904;52.322;10.232;2023-08-17T02:51:33;13.70;;;7.32;;
38089;SDS011;23904;52.322;10.232;2023-08-17T02:53:58;9.13;;;6.75;;
38089;SDS011;23904;52.322;10.232;2023-08-17T02:56:24;9.02;;;5.88;;
38089;SDS011;23904;52.322;10.232;2023-08-17T02:58:49;15.05;;;7.38;;
38089;SDS011;23904;52.322;10.232;2023-08-17T03:01:15;13.57;;;6.97;;
38089;SDS011;23904;52.322;10.232;2023-08-17T03:03:40;10.52;;;6.35;;
38089;SDS011;23904;52.322;10.232;2023-08-17T03:06:07;8.13;;;6.15;;
38089;SDS011;23904;52.322;10.232;2023-08-17T03:08:33;9.25;;;6.05;;
38089;SDS011;23904;52.322;10.232;2023-08-17T03:10:58;6.75;;;5.80;;
38089;SDS011;23904;52.322;10.232;2023-08-17T03:13:24;8.75;;;5.72;;
38089;SDS011;23904;52.322;10.232;2023-08-17T03:15:49;6.65;;;5.45;;
38089;SDS011;23904;52.322;10.232;2023-08-17T03:18:15;6.20;;;4.97;;
38089;SDS011;23904;52.322;10.232;2023-08-17T03:20:40;6.88;;;4.85;;
38089;SDS011;23904;52.322;10.232;2023-08-17T03:23:06;7.50;;;4.90;;
38089;SDS011;23904;52.322;10.232;2023-08-17T03:25:33;6.82;;;4.82;;
38089;SDS011;23904;52.322;10.232;2023-08-17T03:27:59;6.85;;;4.65;;
38089;SDS011;23904;52.322;10.232;2023-08-17T03:30:25;6.80;;;4.75;;
38089;SDS011;23904;52.322;10.232;2023-08-17T03:32:51;8.50;;;5.60;;
38089;SDS011;23904;52.322;10.232;2023-08-17T03:35:17;5.93;;;5.32;;
38089;SDS011;23904;52.322;10.232;2023-08-17T03:37:43;6.93;;;5.60;;
38089;SDS011;23904;52.322;10.232;2023-08-17T03:40:09;8.48;;;5.88;;
38089;SDS011;23904;52.322;10.232;2023-08-17T03:42:34;7.63;;;5.88;;
38089;SDS011;23904;52.322;10.232;2023-08-17T03:45:00;9.88;;;4.78;;
38089;SDS011;23904;52.322;10.232;2023-08-17T03:47:26;7.70;;;5.85;;
38089;SDS011;23904;52.322;10.232;2023-08-17T03:49:51;9.15;;;5.57;;
38089;SDS011;23904;52.322;10.232;2023-08-17T03:52:17;6.95;;;4.40;;
38089;SDS011;23904;52.322;10.232;2023-08-17T03:54:43;8.93;;;5.35;;
38089;SDS011;23904;52.322;10.232;2023-08-17T03:57:08;7.55;;;5.80;;
38089;SDS011;23904;52.322;10.232;2023-08-17T03:59:34;9.50;;;5.95;;
38089;SDS011;23904;52.322;10.232;2023-08-17T04:01:59;9.55;;;5.88;;
38089;SDS011;23904;52.322;10.232;2023-08-17T04:04:25;8.90;;;6.93;;
38089;SDS011;23904;52.322;10.232;2023-08-17T04:06:51;8.23;;;6.43;;
38089;SDS011;23904;52.322;10.232;2023-08-17T04:09:16;7.97;;;5.65;;
38089;SDS011;23904;52.322;10.232;2023-08-17T04:11:42;7.30;;;6.22;;
38089;SDS011;23904;52.322;10.232;2023-08-17T04:14:07;12.45;;;6.72;;
38089;SDS011;23904;52.322;10.232;2023-08-17T04:16:34;11.27;;;6.82;;
38089;SDS011;23904;52.322;10.232;2023-08-17T04:19:00;8.13;;;6.10;;
38089;SDS011;23904;52.322;10.232;2023-08-17T04:21:25;8.68;;;5.95;;
38089;SDS011;23904;52.322;10.232;2023-08-17T04:23:51;12.82;;;6.40;;
38089;SDS011;23904;52.322;10.232;2023-08-17T04:26:17;7.22;;;6.32;;
38089;SDS011;23904;52.322;10.232;2023-08-17T04:28:42;9.40;;;6.78;;
38089;SDS011;23904;52.322;10.232;2023-08-17T04:31:08;11.60;;;6.97;;
38089;SDS011;23904;52.322;10.232;2023-08-17T04:33:34;8.32;;;6.38;;
38089;SDS011;23904;52.322;10.232;2023-08-17T04:35:59;9.60;;;6.43;;
38089;SDS011;23904;52.322;10.232;2023-08-17T04:38:25;10.65;;;6.88;;
38089;SDS011;23904;52.322;10.232;2023-08-17T04:40:51;9.70;;;6.85;;
38089;SDS011;23904;52.322;10.232;2023-08-17T04:43:17;10.45;;;7.63;;
38089;SDS011;23904;52.322;10.232;2023-08-17T04:45:43;8.95;;;7.60;;
38089;SDS011;23904;52.322;10.232;2023-08-17T04:48:12;11.18;;;7.38;;
38089;SDS011;23904;52.322;10.232;2023-08-17T04:50:38;8.98;;;7.72;;
38089;SDS011;23904;52.322;10.232;2023-08-17T04:53:04;9.75;;;7.53;;
38089;SDS011;23904;52.322;10.232;2023-08-17T04:55:31;15.07;;;8.10;;
38089;SDS011;23904;52.322;10.232;2023-08-17T04:57:59;8.73;;;7.40;;
38089;SDS011;23904;52.322;10.232;2023-08-17T05:00:24;10.50;;;7.70;;
38089;SDS011;23904;52.322;10.232;2023-08-17T05:02:53;10.90;;;8.00;;
38089;SDS011;23904;52.322;10.232;2023-08-17T05:05:20;10.90;;;8.15;;
38089;SDS011;23904;52.322;10.232;2023-08-17T05:07:45;11.52;;;7.07;;
38089;SDS011;23904;52.322;10.232;2023-08-17T05:10:11;16.65;;;7.50;;
38089;SDS011;23904;52.322;10.232;2023-08-17T05:12:37;12.68;;;8.07;;
38089;SDS011;23904;52.322;10.232;2023-08-17T05:15:02;10.50;;;7.13;;
38089;SDS011;23904;52.322;10.232;2023-08-17T05:17:28;9.95;;;8.75;;
38089;SDS011;23904;52.322;10.232;2023-08-17T05:19:54;14.90;;;8.70;;
38089;SDS011;23904;52.322;10.232;2023-08-17T05:22:20;10.30;;;8.18;;
38089;SDS011;23904;52.322;10.232;2023-08-17T05:24:46;13.68;;;8.63;;
38089;SDS011;23904;52.322;10.232;2023-08-17T05:27:12;13.73;;;8.95;;
38089;SDS011;23904;52.322;10.232;2023-08-17T05:29:37;11.18;;;8.13;;
38089;SDS011;23904;52.322;10.232;2023-08-17T05:32:03;11.15;;;8.80;;
38089;SDS011;23904;52.322;10.232;2023-08-17T05:34:29;10.65;;;8.63;;
38089;SDS011;23904;52.322;10.232;2023-08-17T05:36:54;9.77;;;7.55;;
38089;SDS011;23904;52.322;10.232;2023-08-17T05:39:20;13.57;;;8.63;;
38089;SDS011;23904;52.322;10.232;2023-08-17T05:41:45;8.15;;;7.35;;
38089;SDS011;23904;52.322;10.232;2023-08-17T05:44:11;8.05;;;6.95;;
38089;SDS011;23904;52.322;10.232;2023-08-17T05:46:38;10.90;;;7.65;;
38089;SDS011;23904;52.322;10.232;2023-08-17T05:49:04;12.98;;;7.15;;
38089;SDS011;23904;52.322;10.232;2023-08-17T05:51:29;12.65;;;7.65;;
38089;SDS011;23904;52.322;10.232;2023-08-17T05:53:55;7.25;;;6.40;;
38089;SDS011;23904;52.322;10.232;2023-08-17T05:56:21;10.13;;;7.63;;
38089;SDS011;23904;52.322;10.232;2023-08-17T05:58:47;9.43;;;7.78;;
38089;SDS011;23904;52.322;10.232;2023-08-17T06:01:13;12.35;;;7.00;;
38089;SDS011;23904;52.322;10.232;2023-08-17T06:03:39;10.05;;;7.03;;
38089;SDS011;23904;52.322;10.232;2023-08-17T06:06:04;9.68;;;7.65;;
38089;SDS011;23904;52.322;10.232;2023-08-17T06:08:30;10.02;;;7.40;;
38089;SDS011;23904;52.322;10.232;2023-08-17T06:10:56;9.30;;;7.50;;
38089;SDS011;23904;52.322;10.232;2023-08-17T06:13:22;8.85;;;6.95;;
38089;SDS011;23904;52.322;10.232;2023-08-17T06:15:48;7.85;;;6.85;;
38089;SDS011;23904;52.322;10.232;2023-08-17T06:18:14;8.93;;;7.22;;
38089;SDS011;23904;52.322;10.232;2023-08-17T06:20:40;8.30;;;7.10;;
38089;SDS011;23904;52.322;10.232;2023-08-17T06:23:06;13.10;;;6.78;;
38089;SDS011;23904;52.322;10.232;2023-08-17T06:25:32;10.65;;;5.88;;
38089;SDS011;23904;52.322;10.232;2023-08-17T06:27:59;7.18;;;6.45;;
38089;SDS011;23904;52.322;10.232;2023-08-17T06:30:25;6.68;;;6.03;;
38089;SDS011;23904;52.322;10.232;2023-08-17T06:32:51;6.57;;;5.85;;
38089;SDS011;23904;52.322;10.232;2023-08-17T06:35:16;7.10;;;6.28;;
38089;SDS011;23904;52.322;10.232;2023-08-17T06:37:42;5.50;;;5.00;;
38089;SDS011;23904;52.322;10.232;2023-08-17T06:40:08;6.22;;;5.63;;
38089;SDS011;23904;52.322;10.232;2023-08-17T06:42:34;8.02;;;5.30;;
38089;SDS011;23904;52.322;10.232;2023-08-17T06:45:00;9.00;;;5.50;;
38089;SDS011;23904;52.322;10.232;2023-08-17T06:47:26;6.00;;;4.85;;
38089;SDS011;23904;52.322;10.232;2023-08-17T06:49:52;6.07;;;5.47;;
38089;SDS011;23904;52.322;10.232;2023-08-17T06:52:17;7.38;;;5.07;;
38089;SDS011;23904;52.322;10.232;2023-08-17T06:54:43;7.10;;;4.70;;
38089;SDS011;23904;52.322;10.232;2023-08-17T06:57:08;6.95;;;5.18;;
38089;SDS011;23904;52.322;10.232;2023-08-17T06:59:34;6.10;;;4.80;;
38089;SDS011;23904;52.322;10.232;2023-08-17T07:02:00;7.70;;;4.88;;
38089;SDS011;23904;52.322;10.232;2023-08-17T07:04:25;9.63;;;5.13;;
38089;SDS011;23904;52.322;10.232;2023-08-17T07:06:51;6.40;;;4.88;;
38089;SDS011;23904;52.322;10.232;2023-08-17T07:09:17;5.47;;;4.78;;
38089;SDS011;23904;52.322;10.232;2023-08-17T07:11:43;5.03;;;4.40;;
38089;SDS011;23904;52.322;10.232;2023-08-17T07:14:09;5.63;;;4.50;;
38089;SDS011;23904;52.322;10.232;2023-08-17T07:16:34;5.60;;;4.72;;
38089;SDS011;23904;52.322;10.232;2023-08-17T07:19:00;7.13;;;4.32;;
38089;SDS011;23904;52.322;10.232;2023-08-17T07:21:25;5.13;;;4.60;;
38089;SDS011;23904;52.322;10.232;2023-08-17T07:23:53;6.72;;;4.63;;
38089;SDS011;23904;52.322;10.232;2023-08-17T07:26:20;5.65;;;4.43;;
38089;SDS011;23904;52.322;10.232;2023-08-17T07:28:47;5.18;;;4.68;;
38089;SDS011;23904;52.322;10.232;2023-08-17T07:31:13;7.53;;;4.70;;
38089;SDS011;23904;52.322;10.232;2023-08-17T07:33:39;5.68;;;4.55;;
38089;SDS011;23904;52.322;10.232;2023-08-17T07:36:05;5.43;;;4.75;;
38089;SDS011;23904;52.322;10.232;2023-08-17T07:38:31;4.65;;;4.18;;
38089;SDS011;23904;52.322;10.232;2023-08-17T07:40:56;4.80;;;4.22;;
38089;SDS011;23904;52.322;10.232;2023-08-17T07:43:23;8.35;;;5.00;;
38089;SDS011;23904;52.322;10.232;2023-08-17T07:45:54;7.00;;;4.13;;
38089;SDS011;23904;52.322;10.232;2023-08-17T07:48:21;7.65;;;4.57;;
38089;SDS011;23904;52.322;10.232;2023-08-17T07:50:50;6.18;;;4.38;;
38089;SDS011;23904;52.322;10.232;2023-08-17T07:53:20;8.57;;;4.35;;
38089;SDS011;23904;52.322;10.232;2023-08-17T07:55:45;6.18;;;4.72;;
38089;SDS011;23904;52.322;10.232;2023-08-17T07:58:11;6.45;;;4.90;;
38089;SDS011;23904;52.322;10.232;2023-08-17T08:00:37;11.82;;;4.65;;
38089;SDS011;23904;52.322;10.232;2023-08-17T08:03:02;6.05;;;4.68;;
38089;SDS011;23904;52.322;10.232;2023-08-17T08:05:28;5.63;;;4.70;;
38089;SDS011;23904;52.322;10.232;2023-08-17T08:07:54;5.38;;;4.38;;
38089;SDS011;23904;52.322;10.232;2023-08-17T08:10:20;4.32;;;3.92;;
38089;SDS011;23904;52.322;10.232;2023-08-17T08:12:45;4.93;;;3.78;;
38089;SDS011;23904;52.322;10.232;2023-08-17T08:15:11;5.38;;;3.83;;
38089;SDS011;23904;52.322;10.232;2023-08-17T08:17:36;5.43;;;3.88;;
38089;SDS011;23904;52.322;10.232;2023-08-17T08:20:02;4.72;;;4.07;;
38089;SDS011;23904;52.322;10.232;2023-08-17T08:22:29;5.65;;;3.95;;
38089;SDS011;23904;52.322;10.232;2023-08-17T08:24:54;4.07;;;3.60;;
38089;SDS011;23904;52.322;10.232;2023-08-17T08:27:20;4.15;;;3.42;;
38089;SDS011;23904;52.322;10.232;2023-08-17T08:29:46;7.15;;;4.80;;
38089;SDS011;23904;52.322;10.232;2023-08-17T08:32:11;4.57;;;3.55;;
38089;SDS011;23904;52.322;10.232;2023-08-17T08:34:37;5.00;;;3.80;;
38089;SDS011;23904;52.322;10.232;2023-08-17T08:37:03;4.93;;;4.13;;
38089;SDS011;23904;52.322;10.232;2023-08-17T08:39:28;3.65;;;3.30;;
38089;SDS011;23904;52.322;10.232;2023-08-17T08:41:54;4.70;;;3.25;;
38089;SDS011;23904;52.322;10.232;2023-08-17T08:44:20;3.88;;;3.33;;
38089;SDS011;23904;52.322;10.232;2023-08-17T08:46:46;5.82;;;4.15;;
38089;SDS011;23904;52.322;10.232;2023-08-17T08:49:18;4.15;;;3.78;;
38089;SDS011;23904;52.322;10.232;2023-08-17T08:51:50;3.60;;;3.30;;
38089;SDS011;23904;52.322;10.232;2023-08-17T08:54:21;4.13;;;2.88;;
38089;SDS011;23904;52.322;10.232;2023-08-17T08:56:48;3.72;;;3.30;;
38089;SDS011;23904;52.322;10.232;2023-08-17T08:59:24;3.63;;;3.25;;
38089;SDS011;23904;52.322;10.232;2023-08-17T09:01:51;4.70;;;2.97;;
38089;SDS011;23904;52.322;10.232;2023-08-17T09:04:17;4.03;;;3.40;;
38089;SDS011;23904;52.322;10.232;2023-08-17T09:06:44;3.55;;;2.88;;
38089;SDS011;23904;52.322;10.232;2023-08-17T09:09:10;4.15;;;3.58;;
38089;SDS011;23904;52.322;10.232;2023-08-17T09:11:40;3.25;;;2.83;;
38089;SDS011;23904;52.322;10.232;2023-08-17T09:14:06;6.32;;;3.85;;
38089;SDS011;23904;52.322;10.232;2023-08-17T09:16:32;6.28;;;3.50;;
38089;SDS011;23904;52.322;10.232;2023-08-17T09:18:58;6.30;;;3.85;;
38089;SDS011;23904;52.322;10.232;2023-08-17T09:21:24;3.90;;;3.13;;
38089;SDS011;23904;52.322;10.232;2023-08-17T09:23:51;4.97;;;3.63;;
38089;SDS011;23904;52.322;10.232;2023-08-17T09:26:19;8.15;;;4.03;;
38089;SDS011;23904;52.322;10.232;2023-08-17T09:28:48;4.80;;;4.22;;
38089;SDS011;23904;52.322;10.232;2023-08-17T09:31:23;5.20;;;3.97;;
38089;SDS011;23904;52.322;10.232;2023-08-17T09:33:49;4.32;;;3.83;;
38089;SDS011;23904;52.322;10.232;2023-08-17T09:36:19;4.53;;;3.42;;
38089;SDS011;23904;52.322;10.232;2023-08-17T09:38:47;4.18;;;3.50;;
38089;SDS011;23904;52.322;10.232;2023-08-17T09:41:15;5.13;;;3.65;;
38089;SDS011;23904;52.322;10.232;2023-08-17T09:43:42;5.90;;;3.95;;
38089;SDS011;23904;52.322;10.232;2023-08-17T09:46:07;4.30;;;3.67;;
38089;SDS011;23904;52.322;10.232;2023-08-17T09:48:34;4.45;;;3.92;;
38089;SDS011;23904;52.322;10.232;2023-08-17T09:51:01;6.38;;;3.22;;
38089;SDS011;23904;52.322;10.232;2023-08-17T09:53:27;4.80;;;4.30;;
38089;SDS011;23904;52.322;10.232;2023-08-17T09:55:53;6.25;;;4.60;;
38089;SDS011;23904;52.322;10.232;2023-08-17T09:58:22;4.95;;;4.55;;
38089;SDS011;23904;52.322;10.232;2023-08-17T10:00:48;5.53;;;4.53;;
38089;SDS011;23904;52.322;10.232;2023-08-17T10:03:15;8.15;;;5.78;;
38089;SDS011;23904;52.322;10.232;2023-08-17T10:05:44;6.32;;;5.65;;
38089;SDS011;23904;52.322;10.232;2023-08-17T10:08:17;6.32;;;5.45;;
38089;SDS011;23904;52.322;10.232;2023-08-17T10:10:46;6.82;;;5.95;;
38089;SDS011;23904;52.322;10.232;2023-08-17T10:13:16;7.35;;;5.45;;
38089;SDS011;23904;52.322;10.232;2023-08-17T10:15:55;7.43;;;6.68;;
38089;SDS011;23904;52.322;10.232;2023-08-17T10:18:59;8.05;;;7.35;;
38089;SDS011;23904;52.322;10.232;2023-08-17T10:21:42;10.18;;;8.13;;
38089;SDS011;23904;52.322;10.232;2023-08-17T10:24:30;12.68;;;7.93;;
38089;SDS011;23904;52.322;10.232;2023-08-17T10:27:00;10.90;;;8.45;;
38089;SDS011;23904;52.322;10.232;2023-08-17T10:29:28;13.20;;;8.82;;
38089;SDS011;23904;52.322;10.232;2023-08-17T10:31:55;11.60;;;9.38;;
38089;SDS011;23904;52.322;10.232;2023-08-17T10:34:22;9.45;;;8.45;;
38089;SDS011;23904;52.322;10.232;2023-08-17T10:36:48;10.57;;;9.48;;
38089;SDS011;23904;52.322;10.232;2023-08-17T10:39:18;17.23;;;10.85;;
38089;SDS011;23904;52.322;10.232;2023-08-17T10:41:49;13.52;;;10.55;;
38089;SDS011;23904;52.322;10.232;2023-08-17T10:49:58;12.90;;;9.85;;
38089;SDS011;23904;52.322;10.232;2023-08-17T10:52:33;13.63;;;10.95;;
38089;SDS011;23904;52.322;10.232;2023-08-17T10:55:06;11.85;;;10.05;;
38089;SDS011;23904;52.322;10.232;2023-08-17T10:57:39;15.13;;;10.87;;
38089;SDS011;23904;52.322;10.232;2023-08-17T11:00:13;13.63;;;10.77;;
38089;SDS011;23904;52.322;10.232;2023-08-17T11:02:44;17.48;;;11.68;;
38089;SDS011;23904;52.322;10.232;2023-08-17T11:08:07;13.35;;;10.23;;
38089;SDS011;23904;52.322;10.232;2023-08-17T11:10:46;12.23;;;9.85;;
38089;SDS011;23904;52.322;10.232;2023-08-17T11:13:23;10.70;;;9.63;;
38089;SDS011;23904;52.322;10.232;2023-08-17T11:15:49;10.35;;;8.95;;
38089;SDS011;23904;52.322;10.232;2023-08-17T11:18:15;9.57;;;8.25;;
38089;SDS011;23904;52.322;10.232;2023-08-17T11:20:41;15.90;;;8.73;;
38089;SDS011;23904;52.322;10.232;2023-08-17T11:23:07;10.52;;;8.27;;
38089;SDS011;23904;52.322;10.232;2023-08-17T11:25:34;10.52;;;8.13;;
38089;SDS011;23904;52.322;10.232;2023-08-17T11:28:02;11.20;;;8.77;;
38089;SDS011;23904;52.322;10.232;2023-08-17T11:30:29;9.75;;;8.63;;
38089;SDS011;23904;52.322;10.232;2023-08-17T11:32:55;12.55;;;9.25;;
38089;SDS011;23904;52.322;10.232;2023-08-17T11:35:21;17.60;;;8.20;;
38089;SDS011;23904;52.322;10.232;2023-08-17T11:37:47;10.70;;;7.68;;
38089;SDS011;23904;52.322;10.232;2023-08-17T11:40:13;11.98;;;7.20;;
38089;SDS011;23904;52.322;10.232;2023-08-17T11:42:40;11.90;;;8.00;;
38089;SDS011;23904;52.322;10.232;2023-08-17T11:45:06;8.52;;;7.00;;
38089;SDS011;23904;52.322;10.232;2023-08-17T11:47:34;10.85;;;8.20;;
38089;SDS011;23904;52.322;10.232;2023-08-17T11:50:01;12.02;;;8.07;;
38089;SDS011;23904;52.322;10.232;2023-08-17T11:52:28;14.10;;;8.18;;
38089;SDS011;23904;52.322;10.232;2023-08-17T11:54:57;14.43;;;9.18;;
38089;SDS011;23904;52.322;10.232;2023-08-17T11:57:23;13.65;;;9.35;;
38089;SDS011;23904;52.322;10.232;2023-08-17T11:59:52;16.08;;;10.52;;
38089;SDS011;23904;52.322;10.232;2023-08-17T12:02:25;16.33;;;10.83;;
38089;SDS011;23904;52.322;10.232;2023-08-17T12:04:52;16.35;;;10.95;;
38089;SDS011;23904;52.322;10.232;2023-08-17T12:07:21;22.95;;;16.15;;
38089;SDS011;23904;52.322;10.232;2023-08-17T12:09:48;23.35;;;12.48;;
38089;SDS011;23904;52.322;10.232;2023-08-17T12:12:18;23.20;;;13.50;;
38089;SDS011;23904;52.322;10.232;2023-08-17T12:14:47;19.02;;;11.40;;
38089;SDS011;23904;52.322;10.232;2023-08-17T12:17:17;20.50;;;11.48;;
38089;SDS011;23904;52.322;10.232;2023-08-17T12:19:44;20.77;;;11.50;;
38089;SDS011;23904;52.322;10.232;2023-08-17T12:22:14;22.02;;;13.60;;
38089;SDS011;23904;52.322;10.232;2023-08-17T12:24:41;25.75;;;13.02;;
38089;SDS011;23904;52.322;10.232;2023-08-17T12:27:08;19.92;;;12.70;;
38089;SDS011;23904;52.322;10.232;2023-08-17T12:29:45;19.38;;;12.82;;
38089;SDS011;23904;52.322;10.232;2023-08-17T12:32:14;24.30;;;13.65;;
38089;SDS011;23904;52.322;10.232;2023-08-17T12:34:42;19.42;;;12.07;;
38089;SDS011;23904;52.322;10.232;2023-08-17T12:37:08;18.17;;;11.07;;
38089;SDS011;23904;52.322;10.232;2023-08-17T12:39:35;24.20;;;13.55;;
38089;SDS011;23904;52.322;10.232;2023-08-17T12:42:01;24.45;;;13.82;;
38089;SDS011;23904;52.322;10.232;2023-08-17T12:44:28;17.27;;;11.45;;
38089;SDS011;23904;52.322;10.232;2023-08-17T12:46:53;19.83;;;11.88;;
38089;SDS011;23904;52.322;10.232;2023-08-17T12:49:19;21.25;;;11.82;;
38089;SDS011;23904;52.322;10.232;2023-08-17T12:51:45;18.95;;;11.45;;
38089;SDS011;23904;52.322;10.232;2023-08-17T12:54:10;22.77;;;11.57;;
38089;SDS011;23904;52.322;10.232;2023-08-17T12:56:36;21.30;;;12.18;;
38089;SDS011;23904;52.322;10.232;2023-08-17T12:59:01;22.20;;;13.25;;
38089;SDS011;23904;52.322;10.232;2023-08-17T13:01:27;20.88;;;11.75;;
38089;SDS011;23904;52.322;10.232;2023-08-17T13:03:53;25.23;;;12.13;;
38089;SDS011;23904;52.322;10.232;2023-08-17T13:06:19;20.23;;;11.52;;
38089;SDS011;23904;52.322;10.232;2023-08-17T13:08:45;26.23;;;12.70;;
38089;SDS011;23904;52.322;10.232;2023-08-17T13:11:10;19.25;;;10.80;;
38089;SDS011;23904;52.322;10.232;2023-08-17T13:13:36;18.55;;;10.95;;
38089;SDS011;23904;52.322;10.232;2023-08-17T13:16:02;22.83;;;12.48;;
38089;SDS011;23904;52.322;10.232;2023-08-17T13:18:28;19.10;;;11.55;;
38089;SDS011;23904;52.322;10.232;2023-08-17T13:20:54;20.73;;;10.38;;
38089;SDS011;23904;52.322;10.232;2023-08-17T13:23:20;23.10;;;12.45;;
38089;SDS011;23904;52.322;10.232;2023-08-17T13:25:45;18.35;;;11.20;;
38089;SDS011;23904;52.322;10.232;2023-08-17T13:28:11;23.38;;;12.07;;
38089;SDS011;23904;52.322;10.232;2023-08-17T13:30:38;20.70;;;12.65;;
38089;SDS011;23904;52.322;10.232;2023-08-17T13:33:04;22.30;;;12.50;;
38089;SDS011;23904;52.322;10.232;2023-08-17T13:35:31;23.13;;;12.43;;
38089;SDS011;23904;52.322;10.232;2023-08-17T13:38:00;22.55;;;11.88;;
38089;SDS011;23904;52.322;10.232;2023-08-17T13:40:29;18.85;;;11.32;;
38089;SDS011;23904;52.322;10.232;2023-08-17T13:42:56;20.65;;;10.80;;
38089;SDS011;23904;52.322;10.232;2023-08-17T13:45:24;22.00;;;11.13;;
38089;SDS011;23904;52.322;10.232;2023-08-17T13:47:50;20.48;;;10.85;;
38089;SDS011;23904;52.322;10.232;2023-08-17T13:50:16;17.65;;;10.77;;
38089;SDS011;23904;52.322;10.232;2023-08-17T13:52:43;22.58;;;10.45;;
38089;SDS011;23904;52.322;10.232;2023-08-17T13:55:09;21.35;;;11.07;;
38089;SDS011;23904;52.322;10.232;2023-08-17T13:57:35;19.90;;;10.70;;
38089;SDS011;23904;52.322;10.232;2023-08-17T14:00:01;17.35;;;10.32;;
38089;SDS011;23904;52.322;10.232;2023-08-17T14:02:29;16.80;;;9.13;;
38089;SDS011;23904;52.322;10.232;2023-08-17T14:04:54;16.20;;;9.70;;
38089;SDS011;23904;52.322;10.232;2023-08-17T14:07:20;14.32;;;8.77;;
38089;SDS011;23904;52.322;10.232;2023-08-17T14:09:45;16.00;;;8.98;;
38089;SDS011;23904;52.322;10.232;2023-08-17T14:12:11;11.13;;;8.05;;
38089;SDS011;23904;52.322;10.232;2023-08-17T14:14:37;16.55;;;8.48;;
38089;SDS011;23904;52.322;10.232;2023-08-17T14:17:02;19.25;;;8.93;;
38089;SDS011;23904;52.322;10.232;2023-08-17T14:19:28;16.30;;;8.43;;
38089;SDS011;23904;52.322;10.232;2023-08-17T14:21:54;17.75;;;9.25;;
38089;SDS011;23904;52.322;10.232;2023-08-17T14:24:19;16.08;;;8.93;;
38089;SDS011;23904;52.322;10.232;2023-08-17T14:26:45;14.73;;;7.70;;
38089;SDS011;23904;52.322;10.232;2023-08-17T14:29:10;13.68;;;8.90;;
38089;SDS011;23904;52.322;10.232;2023-08-17T14:31:36;13.27;;;7.15;;
38089;SDS011;23904;52.322;10.232;2023-08-17T14:34:01;15.13;;;7.85;;
38089;SDS011;23904;52.322;10.232;2023-08-17T14:36:27;15.80;;;7.53;;
38089;SDS011;23904;52.322;10.232;2023-08-17T14:38:53;16.05;;;7.97;;